createdAt,value
2022-12-29T00:02:01.551Z,99.90
2022-12-29T00:04:28.569Z,99.90
2022-12-29T00:06:55.350Z,99.90
2022-12-29T00:09:22.218Z,99.90
2022-12-29T00:11:50.986Z,99.90
2022-12-29T00:14:36.703Z,99.90
2022-12-29T00:17:04.312Z,99.90
2022-12-29T00:19:49.423Z,99.90
2022-12-29T00:22:35.044Z,99.90
2022-12-29T00:25:20.828Z,99.90
2022-12-29T00:28:07.463Z,99.90
2022-12-29T00:30:53.106Z,99.90
2022-12-29T00:33:48.351Z,99.90
2022-12-29T00:36:33.393Z,99.90
2022-12-29T00:39:38.147Z,99.90
2022-12-29T00:42:26.002Z,99.90
2022-12-29T00:44:52.812Z,99.90
2022-12-29T00:47:19.608Z,99.90
2022-12-29T00:49:46.458Z,99.90
2022-12-29T00:52:14.805Z,99.90
2022-12-29T00:54:42.630Z,99.90
2022-12-29T00:57:11.087Z,99.90
2022-12-29T00:59:40.378Z,99.90
2022-12-29T01:02:08.247Z,99.90
2022-12-29T01:04:35.842Z,99.90
2022-12-29T01:07:02.810Z,99.90
2022-12-29T01:09:48.091Z,99.90
2022-12-29T01:12:15.049Z,99.90
2022-12-29T01:14:41.966Z,99.90
2022-12-29T01:17:08.919Z,99.90
2022-12-29T01:19:35.689Z,99.90
2022-12-29T01:22:02.923Z,99.90
2022-12-29T01:24:29.705Z,99.90
2022-12-29T01:26:56.540Z,99.90
2022-12-29T01:29:23.640Z,99.90
2022-12-29T01:31:51.144Z,99.90
2022-12-29T01:34:18.878Z,99.90
2022-12-29T01:36:45.986Z,99.90
2022-12-29T01:39:12.905Z,99.90
2022-12-29T01:41:42.508Z,99.90
2022-12-29T01:44:51.573Z,99.90
2022-12-29T01:47:37.293Z,99.90
2022-12-29T01:50:31.574Z,99.90
2022-12-29T01:53:25.874Z,99.90
2022-12-29T01:56:00.894Z,99.90
2022-12-29T01:58:35.128Z,99.90
2022-12-29T02:01:02.723Z,99.90
2022-12-29T02:03:33.035Z,99.90
2022-12-29T02:06:06.957Z,99.90
2022-12-29T02:08:34.173Z,99.90
2022-12-29T02:11:02.421Z,99.90
2022-12-29T02:13:31.917Z,99.90
2022-12-29T02:16:59.071Z,99.90
2022-12-29T02:19:48.858Z,99.90
2022-12-29T02:22:57.692Z,99.90
2022-12-29T02:25:57.017Z,99.90
2022-12-29T02:28:54.170Z,99.90
2022-12-29T02:31:59.582Z,99.90
2022-12-29T02:37:17.438Z,99.90
2022-12-29T02:40:16.923Z,99.90
2022-12-29T02:43:14.976Z,99.90
2022-12-29T02:46:03.737Z,99.90
2022-12-29T02:48:32.241Z,99.90
2022-12-29T02:51:13.848Z,99.90
2022-12-29T02:54:00.010Z,99.90
2022-12-29T02:56:26.785Z,99.90
2022-12-29T02:58:53.627Z,99.90
2022-12-29T03:02:19.403Z,99.90
2022-12-29T03:05:10.754Z,99.90
2022-12-29T03:07:40.222Z,99.90
2022-12-29T03:10:26.419Z,99.90
2022-12-29T03:13:41.165Z,99.90
2022-12-29T03:16:26.858Z,99.90
2022-12-29T03:19:05.952Z,99.90
2022-12-29T03:22:11.334Z,99.90
2022-12-29T03:24:44.570Z,99.90
2022-12-29T03:27:18.060Z,99.90
2022-12-29T03:29:56.813Z,99.90
2022-12-29T03:32:32.742Z,99.90
2022-12-29T03:35:00.136Z,99.90
2022-12-29T03:37:38.092Z,99.90
2022-12-29T03:40:06.184Z,99.90
2022-12-29T03:42:36.810Z,99.90
2022-12-29T03:45:06.746Z,99.90
2022-12-29T03:47:33.569Z,99.90
2022-12-29T03:50:00.807Z,99.90
2022-12-29T03:52:27.564Z,99.90
2022-12-29T03:54:54.325Z,99.90
2022-12-29T03:57:21.164Z,99.90
2022-12-29T03:59:48.168Z,99.90
2022-12-29T04:02:15.192Z,99.90
2022-12-29T04:04:42.020Z,99.90
2022-12-29T04:07:08.909Z,99.90
2022-12-29T04:09:35.789Z,99.90
2022-12-29T04:12:02.548Z,99.90
2022-12-29T04:14:29.395Z,99.90
2022-12-29T04:16:56.177Z,99.90
2022-12-29T04:19:23.005Z,99.90
2022-12-29T04:21:49.845Z,99.90
2022-12-29T04:24:16.606Z,99.90
2022-12-29T04:26:45.710Z,99.90
2022-12-29T04:29:12.502Z,99.90
2022-12-29T04:31:39.432Z,99.90
2022-12-29T04:34:06.255Z,99.90
2022-12-29T04:36:33.193Z,99.90
2022-12-29T04:39:00.003Z,99.90
2022-12-29T04:41:27.016Z,99.90
2022-12-29T04:43:53.860Z,99.90
2022-12-29T04:46:20.716Z,99.90
2022-12-29T04:48:47.741Z,99.90
2022-12-29T04:51:14.633Z,99.90
2022-12-29T04:53:41.821Z,99.90
2022-12-29T04:56:10.032Z,99.90
2022-12-29T04:58:37.435Z,99.90
2022-12-29T05:01:04.259Z,99.90
2022-12-29T05:03:31.070Z,99.90
2022-12-29T05:05:58.382Z,99.90
2022-12-29T05:08:28.239Z,99.90
2022-12-29T05:10:55.508Z,99.90
2022-12-29T05:13:22.247Z,99.90
2022-12-29T05:15:52.911Z,99.90
2022-12-29T05:18:20.390Z,99.90
2022-12-29T05:20:48.165Z,99.90
2022-12-29T05:23:15.291Z,99.90
2022-12-29T05:25:42.122Z,99.90
2022-12-29T05:28:08.965Z,99.90
2022-12-29T05:30:35.760Z,99.90
2022-12-29T05:33:02.577Z,99.90
2022-12-29T05:35:29.406Z,99.90
2022-12-29T05:37:56.197Z,99.90
2022-12-29T05:40:23.170Z,99.90
2022-12-29T05:42:49.984Z,99.90
2022-12-29T05:45:16.833Z,99.90
2022-12-29T05:47:43.668Z,99.90
2022-12-29T05:50:10.515Z,99.90
2022-12-29T05:52:37.300Z,99.90
2022-12-29T05:55:04.566Z,99.90
2022-12-29T05:57:31.326Z,99.90
2022-12-29T05:59:58.085Z,99.90
2022-12-29T06:02:24.987Z,99.90
2022-12-29T06:04:51.990Z,99.90
2022-12-29T06:07:18.799Z,99.90
2022-12-29T06:09:45.559Z,99.90
2022-12-29T06:12:12.411Z,99.90
2022-12-29T06:14:39.274Z,99.90
2022-12-29T06:17:06.031Z,99.90
2022-12-29T06:19:33.363Z,99.90
2022-12-29T06:22:00.155Z,99.90
2022-12-29T06:24:27.025Z,99.90
2022-12-29T06:26:53.810Z,99.90
2022-12-29T06:29:21.471Z,99.90
2022-12-29T06:31:49.710Z,99.90
2022-12-29T06:34:16.772Z,99.90
2022-12-29T06:36:44.061Z,99.90
2022-12-29T06:39:11.802Z,99.90
2022-12-29T06:41:38.872Z,99.90
2022-12-29T06:44:05.697Z,99.90
2022-12-29T06:46:32.621Z,99.90
2022-12-29T06:48:59.481Z,99.90
2022-12-29T06:51:26.250Z,99.90
2022-12-29T06:53:53.001Z,99.90
2022-12-29T06:56:19.777Z,99.90
2022-12-29T06:58:46.527Z,99.90
2022-12-29T07:01:13.444Z,99.90
2022-12-29T07:03:43.933Z,99.90
2022-12-29T07:06:10.741Z,99.90
2022-12-29T07:08:37.632Z,99.90
2022-12-29T07:11:04.664Z,99.90
2022-12-29T07:13:31.434Z,99.90
2022-12-29T07:15:58.215Z,99.90
2022-12-29T07:18:24.996Z,99.90
2022-12-29T07:20:51.830Z,99.90
2022-12-29T07:23:18.621Z,99.90
2022-12-29T07:25:45.372Z,99.90
2022-12-29T07:28:12.222Z,99.90
2022-12-29T07:30:39.458Z,99.90
2022-12-29T07:33:06.367Z,99.90
2022-12-29T07:35:35.364Z,99.90
2022-12-29T07:38:02.171Z,99.90
2022-12-29T07:40:28.907Z,99.90
2022-12-29T07:42:55.665Z,99.90
2022-12-29T07:45:22.469Z,99.90
2022-12-29T07:47:50.845Z,99.90
2022-12-29T07:50:17.741Z,99.90
2022-12-29T07:52:47.074Z,99.90
2022-12-29T07:55:13.866Z,99.90
2022-12-29T07:57:40.641Z,99.90
2022-12-29T08:00:08.525Z,99.90
2022-12-29T08:02:35.354Z,99.90
2022-12-29T08:05:02.198Z,99.90
2022-12-29T08:07:29.042Z,99.90
2022-12-29T08:09:55.843Z,99.90
2022-12-29T08:12:22.627Z,99.90
2022-12-29T08:14:50.048Z,99.90
2022-12-29T08:17:16.802Z,99.90
2022-12-29T08:19:43.695Z,99.90
2022-12-29T08:22:10.584Z,99.90
2022-12-29T08:24:37.396Z,99.90
2022-12-29T08:27:13.108Z,99.90
2022-12-29T08:29:45.032Z,99.90
2022-12-29T08:32:12.363Z,99.90
2022-12-29T08:34:39.130Z,99.90
2022-12-29T08:37:06.132Z,99.90
2022-12-29T08:39:32.887Z,99.90
2022-12-29T08:42:00.093Z,99.90
2022-12-29T08:44:27.225Z,99.90
2022-12-29T08:46:54.256Z,99.90
2022-12-29T08:49:21.127Z,99.90
2022-12-29T08:51:48.236Z,99.90
2022-12-29T08:54:15.054Z,99.90
2022-12-29T08:56:42.428Z,99.90
2022-12-29T08:59:09.252Z,99.90
2022-12-29T09:01:37.629Z,99.90
2022-12-29T09:04:15.006Z,99.90
2022-12-29T09:06:43.357Z,99.90
2022-12-29T09:09:10.372Z,99.90
2022-12-29T09:11:37.470Z,99.90
2022-12-29T09:14:05.185Z,99.90
2022-12-29T09:16:32.593Z,99.90
2022-12-29T09:18:59.407Z,99.90
2022-12-29T09:21:26.293Z,99.90
2022-12-29T09:23:53.429Z,99.90
2022-12-29T09:26:20.779Z,99.90
2022-12-29T09:28:48.339Z,99.90
2022-12-29T09:31:15.518Z,99.90
2022-12-29T09:33:42.377Z,99.90
2022-12-29T09:36:10.593Z,99.90
2022-12-29T09:38:37.545Z,99.90
2022-12-29T09:41:27.915Z,99.80
2022-12-29T09:44:24.393Z,99.80
2022-12-29T09:46:54.461Z,99.90
2022-12-29T09:49:25.606Z,99.10
2022-12-29T09:51:58.435Z,98.70
2022-12-29T09:54:34.293Z,98.80
2022-12-29T09:57:02.364Z,99.40
2022-12-29T09:59:42.634Z,99.50
2022-12-29T10:02:29.998Z,99.40
2022-12-29T10:04:58.528Z,98.90
2022-12-29T10:08:28.414Z,98.20
2022-12-29T10:11:15.239Z,98.10
2022-12-29T10:14:03.189Z,97.90
2022-12-29T10:17:04.472Z,99.40
2022-12-29T10:20:24.699Z,99.10
2022-12-29T10:23:20.931Z,99.20
2022-12-29T10:25:48.283Z,99.40
2022-12-29T10:28:34.399Z,99.50
2022-12-29T10:31:08.775Z,98.20
2022-12-29T10:33:41.621Z,99.00
2022-12-29T10:36:21.671Z,99.00
2022-12-29T10:39:16.265Z,98.50
2022-12-29T10:41:57.189Z,98.30
2022-12-29T10:44:29.682Z,98.50
2022-12-29T10:47:04.012Z,98.30
2022-12-29T10:49:33.640Z,96.90
2022-12-29T10:52:05.632Z,97.90
2022-12-29T10:54:58.424Z,97.50
2022-12-29T10:57:50.673Z,97.30
2022-12-29T11:00:23.304Z,96.40
2022-12-29T11:03:29.685Z,97.80
2022-12-29T11:06:27.448Z,98.10
2022-12-29T11:09:17.105Z,97.90
2022-12-29T11:11:44.193Z,98.00
2022-12-29T11:14:18.375Z,97.30
2022-12-29T11:16:46.315Z,96.90
2022-12-29T11:19:26.599Z,96.10
2022-12-29T11:21:54.072Z,96.20
2022-12-29T11:24:27.706Z,97.60
2022-12-29T11:27:16.654Z,97.50
2022-12-29T11:29:45.389Z,96.90
2022-12-29T11:32:27.838Z,97.30
2022-12-29T11:34:55.335Z,95.90
2022-12-29T11:37:40.122Z,96.40
2022-12-29T11:40:27.666Z,96.40
2022-12-29T11:43:05.445Z,95.90
2022-12-29T11:45:38.402Z,95.70
2022-12-29T11:48:21.660Z,96.10
2022-12-29T11:50:57.063Z,95.80
2022-12-29T11:53:38.117Z,96.10
2022-12-29T11:56:14.634Z,96.30
2022-12-29T11:58:42.806Z,96.10
2022-12-29T12:01:48.716Z,96.50
2022-12-29T12:04:19.715Z,96.90
2022-12-29T12:07:13.499Z,97.10
2022-12-29T12:10:07.486Z,96.50
2022-12-29T12:13:26.844Z,95.90
2022-12-29T12:16:19.557Z,96.60
2022-12-29T12:19:00.703Z,95.40
2022-12-29T12:21:45.861Z,96.00
2022-12-29T12:24:35.190Z,96.60
2022-12-29T12:27:25.892Z,95.50
2022-12-29T12:30:14.837Z,95.40
2022-12-29T12:33:03.762Z,95.60
2022-12-29T12:35:59.547Z,96.00
2022-12-29T12:38:44.530Z,95.90
2022-12-29T12:41:52.145Z,95.80
2022-12-29T12:44:50.303Z,95.10
2022-12-29T12:47:53.369Z,95.50
2022-12-29T12:50:51.177Z,94.60
2022-12-29T12:53:54.317Z,94.20
2022-12-29T12:56:57.120Z,94.20
2022-12-29T12:59:37.718Z,93.80
2022-12-29T13:02:33.157Z,94.20
2022-12-29T13:05:40.442Z,94.70
2022-12-29T13:08:41.663Z,94.60
2022-12-29T13:12:11.479Z,95.10
2022-12-29T13:15:10.640Z,95.20
2022-12-29T13:17:58.321Z,95.70
2022-12-29T13:20:44.242Z,96.60
2022-12-29T13:23:36.917Z,97.10
2022-12-29T13:26:25.539Z,97.70
2022-12-29T13:29:33.822Z,97.70
2022-12-29T13:32:39.853Z,98.00
2022-12-29T13:35:37.819Z,98.70
2022-12-29T13:38:24.433Z,99.40
2022-12-29T13:40:57.996Z,99.10
2022-12-29T13:43:28.314Z,99.70
2022-12-29T13:46:10.442Z,99.80
2022-12-29T13:49:05.635Z,99.90
2022-12-29T13:51:34.154Z,99.90
2022-12-29T13:54:39.140Z,99.90
2022-12-29T13:57:30.915Z,99.90
2022-12-29T14:00:06.323Z,99.90
2022-12-29T14:02:47.930Z,99.90
2022-12-29T14:05:23.993Z,99.90
2022-12-29T14:08:01.928Z,99.90
2022-12-29T14:10:58.459Z,99.90
2022-12-29T14:13:26.903Z,99.90
2022-12-29T14:15:59.477Z,99.80
2022-12-29T14:18:34.282Z,99.60
2022-12-29T14:21:28.702Z,99.90
2022-12-29T14:24:02.064Z,99.90
2022-12-29T14:26:36.795Z,99.90
2022-12-29T14:29:25.465Z,99.90
2022-12-29T14:31:53.779Z,99.90
2022-12-29T14:34:40.822Z,99.90
2022-12-29T14:37:28.832Z,99.90
2022-12-29T14:40:27.080Z,99.90
2022-12-29T14:42:56.528Z,99.90
2022-12-29T14:45:38.344Z,99.90
2022-12-29T14:48:31.864Z,99.90
2022-12-29T14:50:58.704Z,99.90
2022-12-29T14:53:49.988Z,99.90
2022-12-29T14:56:21.106Z,99.90
2022-12-29T14:58:59.036Z,99.90
2022-12-29T15:01:45.691Z,99.90
2022-12-29T15:04:23.950Z,99.90
2022-12-29T15:06:51.188Z,99.90
2022-12-29T15:09:51.109Z,99.90
2022-12-29T15:12:22.191Z,99.90
2022-12-29T15:15:01.164Z,99.90
2022-12-29T15:17:34.095Z,99.90
2022-12-29T15:20:17.524Z,99.90
2022-12-29T15:22:57.210Z,99.90
2022-12-29T15:25:25.399Z,99.90
2022-12-29T15:27:55.071Z,99.90
2022-12-29T15:30:23.112Z,99.90
2022-12-29T15:32:51.101Z,99.90
2022-12-29T15:35:35.886Z,99.90
2022-12-29T15:38:17.497Z,99.90
2022-12-29T15:40:47.933Z,99.90
2022-12-29T15:43:46.967Z,99.90
2022-12-29T15:46:14.996Z,99.90
2022-12-29T15:48:42.286Z,99.90
2022-12-29T15:51:23.057Z,99.90
2022-12-29T15:53:52.238Z,99.90
2022-12-29T15:56:19.821Z,99.90
2022-12-29T15:58:51.264Z,99.90
2022-12-29T16:01:35.258Z,99.90
2022-12-29T16:04:07.467Z,99.90
2022-12-29T16:06:40.611Z,99.90
2022-12-29T16:09:19.762Z,99.90
2022-12-29T16:11:56.356Z,99.90
2022-12-29T16:14:33.261Z,99.90
2022-12-29T16:17:07.395Z,99.90
2022-12-29T16:19:38.581Z,99.90
2022-12-29T16:22:19.455Z,99.90
2022-12-29T16:24:47.017Z,99.90
2022-12-29T16:27:28.101Z,99.90
2022-12-29T16:29:56.448Z,99.90
2022-12-29T16:32:32.381Z,99.90
2022-12-29T16:35:21.909Z,99.90
2022-12-29T16:37:49.757Z,99.90
2022-12-29T16:40:20.535Z,99.90
2022-12-29T16:42:52.318Z,99.90
2022-12-29T16:45:22.431Z,99.90
2022-12-29T16:48:07.561Z,99.90
2022-12-29T16:50:37.483Z,99.90
2022-12-29T16:53:06.347Z,99.90
2022-12-29T16:55:33.716Z,99.90
2022-12-29T16:58:01.328Z,99.90
2022-12-29T17:00:35.847Z,99.90
2022-12-29T17:03:04.297Z,99.90
2022-12-29T17:05:31.175Z,99.90
2022-12-29T17:08:02.167Z,99.90
2022-12-29T17:10:47.850Z,99.90
2022-12-29T17:13:14.743Z,99.90
2022-12-29T17:15:41.667Z,99.90
2022-12-29T17:18:13.936Z,99.90
2022-12-29T17:20:41.321Z,99.90
2022-12-29T17:23:22.604Z,99.90
2022-12-29T17:25:51.727Z,99.90
2022-12-29T17:28:29.758Z,99.90
2022-12-29T17:31:04.142Z,99.90
2022-12-29T17:33:38.589Z,99.90
2022-12-29T17:36:05.649Z,99.90
2022-12-29T17:38:36.029Z,99.90
2022-12-29T17:41:03.190Z,99.90
2022-12-29T17:43:36.412Z,99.90
2022-12-29T17:46:07.416Z,99.90
2022-12-29T17:48:34.518Z,99.90
2022-12-29T17:51:01.424Z,99.90
2022-12-29T17:53:30.016Z,99.90
2022-12-29T17:55:57.141Z,99.90
2022-12-29T17:58:26.226Z,99.90
2022-12-29T18:00:56.744Z,99.90
2022-12-29T18:03:34.427Z,99.90
2022-12-29T18:06:02.129Z,99.90
2022-12-29T18:08:29.426Z,99.90
2022-12-29T18:10:56.828Z,99.90
2022-12-29T18:13:40.489Z,99.90
2022-12-29T18:16:13.340Z,99.90
2022-12-29T18:18:40.309Z,99.90
2022-12-29T18:21:07.519Z,99.90
2022-12-29T18:23:37.602Z,99.90
2022-12-29T18:26:25.478Z,99.90
2022-12-29T18:28:54.515Z,99.90
2022-12-29T18:31:30.476Z,99.90
2022-12-29T18:33:59.817Z,99.90
2022-12-29T18:36:27.538Z,99.90
2022-12-29T18:38:54.719Z,99.90
2022-12-29T18:41:29.649Z,99.90
2022-12-29T18:43:57.591Z,99.90
2022-12-29T18:46:24.893Z,99.90
2022-12-29T18:48:53.145Z,99.90
2022-12-29T18:51:23.542Z,99.90
2022-12-29T18:53:53.753Z,99.90
2022-12-29T18:56:23.860Z,99.90
2022-12-29T18:58:51.500Z,99.90
2022-12-29T19:01:27.630Z,99.90
2022-12-29T19:03:54.874Z,99.90
2022-12-29T19:06:21.948Z,99.90
2022-12-29T19:08:49.158Z,99.90
2022-12-29T19:11:16.084Z,99.90
2022-12-29T19:13:42.896Z,99.90
2022-12-29T19:16:27.357Z,99.90
2022-12-29T19:19:08.504Z,99.90
2022-12-29T19:21:37.523Z,99.90
2022-12-29T19:24:05.133Z,99.90
2022-12-29T19:26:36.460Z,99.90
2022-12-29T19:29:05.707Z,99.90
2022-12-29T19:31:32.750Z,99.90
2022-12-29T19:34:02.887Z,99.90
2022-12-29T19:36:29.856Z,99.90
2022-12-29T19:38:56.937Z,99.90
2022-12-29T19:41:24.282Z,99.90
2022-12-29T19:43:51.266Z,99.90
2022-12-29T19:46:19.997Z,99.90
2022-12-29T19:48:46.937Z,99.90
2022-12-29T19:51:17.079Z,99.90
2022-12-29T19:53:47.546Z,99.90
2022-12-29T19:56:15.302Z,99.90
2022-12-29T19:58:46.841Z,99.90
2022-12-29T20:01:21.841Z,99.90
2022-12-29T20:03:50.115Z,99.90
2022-12-29T20:06:18.174Z,99.90
2022-12-29T20:08:45.042Z,99.90
2022-12-29T20:11:18.013Z,99.90
2022-12-29T20:13:45.568Z,99.90
2022-12-29T20:16:17.500Z,99.90
2022-12-29T20:18:45.326Z,99.90
2022-12-29T20:21:22.950Z,99.90
2022-12-29T20:23:51.961Z,99.90
2022-12-29T20:26:27.080Z,99.90
2022-12-29T20:28:55.145Z,99.90
2022-12-29T20:31:36.224Z,99.90
2022-12-29T20:34:05.219Z,99.90
2022-12-29T20:36:35.254Z,99.90
2022-12-29T20:39:06.468Z,99.90
2022-12-29T20:41:33.970Z,99.90
2022-12-29T20:44:00.908Z,99.90
2022-12-29T20:46:35.027Z,99.90
2022-12-29T20:49:04.401Z,99.90
2022-12-29T20:51:59.366Z,99.90
2022-12-29T20:54:06.533Z,99.90
2022-12-29T20:56:33.347Z,99.90
2022-12-29T20:59:26.262Z,99.90
2022-12-29T21:01:47.131Z,99.90
2022-12-29T21:04:14.202Z,99.90
2022-12-29T21:06:41.011Z,99.90
2022-12-29T21:09:08.134Z,99.90
2022-12-29T21:11:35.273Z,99.90
2022-12-29T21:14:02.411Z,99.90
2022-12-29T21:16:29.648Z,99.90
2022-12-29T21:18:56.561Z,99.90
2022-12-29T21:21:25.456Z,99.90
2022-12-29T21:23:52.862Z,99.90
2022-12-29T21:26:23.054Z,99.90
2022-12-29T21:28:51.400Z,99.90
2022-12-29T21:31:36.044Z,99.90
2022-12-29T21:34:05.226Z,99.90
2022-12-29T21:36:33.136Z,99.90
2022-12-29T21:39:00.884Z,99.90
2022-12-29T21:41:27.736Z,99.90
2022-12-29T21:44:13.050Z,99.90
2022-12-29T21:46:43.828Z,99.90
2022-12-29T21:49:10.830Z,99.90
2022-12-29T21:51:49.935Z,99.90
2022-12-29T21:54:44.352Z,99.90
2022-12-29T21:57:17.942Z,99.90
2022-12-29T22:00:06.217Z,99.90
2022-12-29T22:02:51.435Z,99.90
2022-12-29T22:05:36.678Z,99.90
2022-12-29T22:08:22.261Z,99.90
2022-12-29T22:11:08.076Z,99.90
2022-12-29T22:13:37.596Z,99.90
2022-12-29T22:16:07.173Z,99.90
2022-12-29T22:18:35.239Z,99.90
2022-12-29T22:21:11.752Z,99.90
2022-12-29T22:23:39.497Z,99.90
2022-12-29T22:26:12.668Z,99.90
2022-12-29T22:28:46.049Z,99.90
2022-12-29T22:31:29.600Z,99.90
2022-12-29T22:34:00.484Z,99.90
2022-12-29T22:36:28.697Z,99.90
2022-12-29T22:38:55.992Z,99.90
2022-12-29T22:41:24.177Z,99.90
2022-12-29T22:43:52.096Z,99.90
2022-12-29T22:46:20.889Z,99.90
2022-12-29T22:48:47.813Z,99.90
2022-12-29T22:51:14.682Z,99.90
2022-12-29T22:53:41.783Z,99.90
2022-12-29T22:56:13.069Z,99.90
2022-12-29T22:58:42.325Z,99.90
2022-12-29T23:01:10.955Z,99.90
2022-12-29T23:03:39.529Z,99.90
2022-12-29T23:06:11.621Z,99.90
2022-12-29T23:08:40.313Z,99.90
2022-12-29T23:11:11.255Z,99.90
2022-12-29T23:13:40.706Z,99.90
2022-12-29T23:16:08.083Z,99.90
2022-12-29T23:18:35.081Z,99.90
2022-12-29T23:21:02.267Z,99.90
2022-12-29T23:23:49.600Z,99.90
2022-12-29T23:26:26.854Z,99.90
2022-12-29T23:28:59.968Z,99.90
2022-12-29T23:31:28.313Z,99.90
2022-12-29T23:33:56.255Z,99.90
2022-12-29T23:36:23.363Z,99.90
2022-12-29T23:38:50.197Z,99.90
2022-12-29T23:41:17.111Z,99.90
2022-12-29T23:43:44.091Z,99.90
2022-12-29T23:46:15.277Z,99.90
2022-12-29T23:48:42.454Z,99.90
2022-12-29T23:51:10.179Z,99.90
2022-12-29T23:53:41.297Z,99.90
2022-12-29T23:56:12.636Z,99.90
2022-12-29T23:58:39.453Z,99.90
